Terminal Aerodrome Forecast
Issued by NWS

Current Version | Previous Version | Text Only | Print | Product List | Glossary On
Versions: 1 2 3 4 5 6 7 8 9 10 11 12 13 14 15 16 17 18 19 20 21 22 23 24 25 26 27 28 29 30 31 32 33 34 35 36
000 FTUS41 KBOX 301231 AAA TAFHYA TAF AMD KHYA 301231Z 3013/3112 20012G23KT P6SM BKN130 FM301500 19014G25KT P6SM -RA OVC060 FM301600 19015G26KT P6SM OVC050 FM302300 23011G24KT P6SM BKN045 FM310200 25010G23KT P6SM SCT045 FM311000 28011G22KT P6SM FEW250=

USA.gov is the U.S. government's official web portal to all federal, state and local government web resources and services.